Time;durP1;ratioP1;P1;durP2;ratioP2;P2;SDS_P1;SDS_P2;PMS_P1;PMS_P2;Temp;Humidity;BMP_temperature;BMP_pressure;BME280_temperature;BME280_humidity;BME280_pressure;Samples;Min_cycle;Max_cycle;Signal;HPM_P1;HPM_P2
2024/04/26 00:01:14;;;;;;;6.75;2.40;;;;;;;7.54;65.16;99914.66;5438847;26;20045;-70
2024/04/26 00:03:41;;;;;;;5.10;2.50;;;;;;;7.56;65.94;99906.75;5440278;26;20018;-71
2024/04/26 00:06:07;;;;;;;8.30;2.60;;;;;;;7.62;65.82;99900.16;5412730;26;20010;-71
2024/04/26 00:08:33;;;;;;;4.13;1.92;;;;;;;7.55;65.45;99910.28;5415842;26;20014;-71
2024/04/26 00:11:03;;;;;;;7.10;2.40;;;;;;;7.57;65.35;99909.19;5441952;26;20007;-70
2024/04/26 00:13:29;;;;;;;10.02;4.38;;;;;;;7.50;66.35;99899.66;5413826;26;20075;-71
2024/04/26 00:15:55;;;;;;;6.97;3.10;;;;;;;7.49;66.81;99901.41;5411986;26;20412;-71
2024/04/26 00:18:22;;;;;;;11.18;2.30;;;;;;;7.53;66.04;99900.13;5437646;26;20030;-71
2024/04/26 00:20:48;;;;;;;8.13;2.75;;;;;;;7.45;66.49;99899.31;5402442;26;20462;-71
2024/04/26 00:23:14;;;;;;;7.28;2.40;;;;;;;7.45;66.75;99899.31;5440620;26;20014;-70
2024/04/26 00:25:39;;;;;;;11.85;2.85;;;;;;;7.56;65.61;99894.66;5429171;26;21044;-70
2024/04/26 00:28:06;;;;;;;5.13;2.40;;;;;;;7.59;65.95;99896.94;5435402;26;21839;-71
2024/04/26 00:30:31;;;;;;;5.90;2.30;;;;;;;7.48;66.04;99899.81;5432806;26;20481;-70
2024/04/26 00:32:58;;;;;;;6.50;2.03;;;;;;;7.38;67.20;99905.09;5429602;26;20018;-71
2024/04/26 00:35:24;;;;;;;4.65;2.00;;;;;;;7.43;67.17;99894.31;5437959;26;20530;-71
2024/04/26 00:37:50;;;;;;;7.13;2.50;;;;;;;7.36;67.65;99891.53;5405960;26;20010;-71
2024/04/26 00:40:16;;;;;;;6.85;2.17;;;;;;;7.34;68.43;99887.50;5433104;26;20017;-70
2024/04/26 00:42:42;;;;;;;5.78;2.28;;;;;;;7.33;68.52;99888.47;5390923;26;20397;-71
2024/04/26 00:45:08;;;;;;;7.60;2.25;;;;;;;7.34;67.82;99892.66;5420438;26;20007;-71
2024/04/26 00:47:34;;;;;;;7.07;2.00;;;;;;;7.44;67.52;99893.34;5405865;26;20019;-70
2024/04/26 00:50:01;;;;;;;4.93;2.10;;;;;;;7.39;68.09;99891.22;5435294;26;20021;-71
2024/04/26 00:52:28;;;;;;;8.40;2.78;;;;;;;7.45;67.94;99894.16;5406957;26;20076;-71
2024/04/26 00:54:55;;;;;;;7.00;2.33;;;;;;;7.44;67.69;99885.63;5438579;26;20075;-70
2024/04/26 00:57:21;;;;;;;9.75;2.10;;;;;;;7.37;68.28;99892.34;5439353;26;20083;-71
2024/04/26 00:59:49;;;;;;;12.30;2.70;;;;;;;7.34;68.44;99882.34;5407812;26;20019;-71
2024/04/26 01:02:17;;;;;;;8.88;2.70;;;;;;;7.37;68.97;99882.03;5442169;26;20107;-70
2024/04/26 01:04:43;;;;;;;6.40;2.30;;;;;;;7.22;69.60;99889.56;5406940;26;20011;-73
2024/04/26 01:07:09;;;;;;;9.63;2.30;;;;;;;7.24;69.65;99889.41;5442811;26;20357;-71
2024/04/26 01:09:35;;;;;;;6.88;2.00;;;;;;;7.17;70.11;99884.06;5439121;26;20011;-72
2024/04/26 01:12:02;;;;;;;12.43;2.33;;;;;;;7.19;69.33;99885.50;5436385;26;20021;-71
2024/04/26 01:14:28;;;;;;;10.55;2.00;;;;;;;7.24;69.35;99886.84;5443632;26;20013;-71
2024/04/26 01:16:54;;;;;;;7.15;2.70;;;;;;;7.15;69.84;99881.63;5438607;26;20010;-71
2024/04/26 01:19:20;;;;;;;7.35;1.80;;;;;;;7.12;70.39;99889.69;5410637;26;20014;-71
2024/04/26 01:21:46;;;;;;;6.10;3.13;;;;;;;7.18;70.74;99890.84;5440768;26;20002;-71
2024/04/26 01:24:12;;;;;;;5.25;1.98;;;;;;;7.16;71.02;99888.41;5443824;26;20618;-72
2024/04/26 01:26:38;;;;;;;6.07;2.30;;;;;;;7.21;69.74;99893.94;5444111;26;20006;-71
2024/04/26 01:29:04;;;;;;;12.07;2.45;;;;;;;7.20;69.88;99888.91;5407304;26;20007;-71
2024/04/26 01:31:30;;;;;;;11.27;2.05;;;;;;;7.11;69.60;99885.50;5409569;26;20006;-71
2024/04/26 01:33:56;;;;;;;6.63;2.15;;;;;;;7.22;70.52;99895.53;5407930;26;20006;-71
2024/04/26 01:36:22;;;;;;;7.75;2.10;;;;;;;7.20;70.44;99883.75;5413486;26;20014;-71
2024/04/26 01:38:48;;;;;;;8.13;2.45;;;;;;;7.14;70.85;99886.94;5412091;26;20002;-71
2024/04/26 01:41:14;;;;;;;9.13;2.15;;;;;;;7.04;71.46;99886.28;5413186;26;20361;-71
2024/04/26 01:43:40;;;;;;;8.02;2.15;;;;;;;7.12;71.73;99887.13;5436331;26;20010;-71
2024/04/26 01:46:06;;;;;;;17.40;2.47;;;;;;;7.07;70.92;99886.78;5442146;26;20007;-71
2024/04/26 01:48:32;;;;;;;6.53;2.08;;;;;;;7.04;71.68;99888.84;5435896;26;20015;-71
2024/04/26 01:50:58;;;;;;;10.23;2.30;;;;;;;7.08;72.42;99890.94;5441047;26;19995;-71
2024/04/26 01:53:24;;;;;;;8.70;2.25;;;;;;;7.01;72.06;99884.81;5438426;26;20018;-71
2024/04/26 01:55:49;;;;;;;7.25;2.10;;;;;;;6.97;72.70;99888.69;5440006;26;20015;-70
2024/04/26 01:58:15;;;;;;;7.50;2.60;;;;;;;6.96;73.64;99892.19;5411198;26;20015;-71
2024/04/26 02:00:41;;;;;;;8.18;2.63;;;;;;;6.95;74.13;99890.56;5437501;26;20372;-71
2024/04/26 02:03:07;;;;;;;3.92;2.08;;;;;;;6.95;74.49;99893.97;5445028;26;19998;-71
2024/04/26 02:05:33;;;;;;;7.95;2.58;;;;;;;6.95;74.21;99890.56;5441448;26;20011;-71
2024/04/26 02:07:59;;;;;;;8.70;2.10;;;;;;;6.93;74.79;99897.66;5442910;26;20007;-71
2024/04/26 02:10:25;;;;;;;6.15;1.70;;;;;;;6.92;75.34;99896.06;5436494;26;20016;-71
2024/04/26 02:12:51;;;;;;;12.05;2.40;;;;;;;6.93;75.06;99895.91;5428702;26;20002;-70
2024/04/26 02:15:17;;;;;;;8.80;2.22;;;;;;;7.06;74.72;99892.88;5434548;26;20531;-71
2024/04/26 02:17:43;;;;;;;8.18;2.50;;;;;;;7.03;75.73;99888.06;5412264;26;19998;-71
2024/04/26 02:20:09;;;;;;;8.75;2.60;;;;;;;7.05;76.15;99885.31;5445818;26;20006;-71
2024/04/26 02:22:35;;;;;;;6.85;2.35;;;;;;;6.95;77.95;99888.81;5408833;26;20362;-71
2024/04/26 02:25:01;;;;;;;4.30;2.65;;;;;;;6.91;79.30;99884.13;5443100;26;20002;-71
2024/04/26 02:27:27;;;;;;;7.25;2.88;;;;;;;6.89;80.73;99880.88;5407695;26;20014;-70
2024/04/26 02:29:53;;;;;;;6.47;2.70;;;;;;;6.88;81.04;99879.28;5401175;26;20018;-70
2024/04/26 02:32:19;;;;;;;6.45;2.63;;;;;;;6.82;82.43;99881.50;5438526;26;20017;-71
2024/04/26 02:34:45;;;;;;;9.80;2.75;;;;;;;6.88;84.33;99880.09;5411198;26;20003;-71
2024/04/26 02:37:11;;;;;;;8.70;2.60;;;;;;;7.05;84.15;99880.16;5406005;26;20018;-71
2024/04/26 02:39:37;;;;;;;7.78;2.67;;;;;;;6.88;83.91;99871.56;5435776;26;19996;-71
2024/04/26 02:42:04;;;;;;;11.05;2.60;;;;;;;6.81;85.04;99882.47;5407980;26;20365;-71
2024/04/26 02:44:30;;;;;;;8.65;2.40;;;;;;;6.74;85.75;99871.19;5444985;26;20043;-71
2024/04/26 02:46:56;;;;;;;8.82;3.30;;;;;;;6.85;86.12;99870.06;5435203;26;20018;-70
2024/04/26 02:49:22;;;;;;;7.60;2.78;;;;;;;6.72;86.18;99873.06;5409405;26;20007;-71
2024/04/26 02:51:48;;;;;;;4.53;2.65;;;;;;;6.68;86.58;99881.28;5400573;26;20021;-70
2024/04/26 02:54:13;;;;;;;7.07;2.83;;;;;;;6.63;87.49;99879.16;5438874;26;20015;-70
2024/04/26 02:56:39;;;;;;;5.88;2.88;;;;;;;6.64;88.22;99878.19;5437278;26;20003;-71
2024/04/26 02:59:05;;;;;;;9.25;2.85;;;;;;;6.66;88.93;99875.47;5406896;26;20018;-70
2024/04/26 03:01:33;;;;;;;10.32;2.72;;;;;;;6.67;89.16;99869.34;5447728;26;20022;-71
2024/04/26 03:03:59;;;;;;;7.65;3.20;;;;;;;6.67;90.04;99872.75;5444252;26;20083;-70
2024/04/26 03:06:25;;;;;;;5.75;2.72;;;;;;;6.57;90.99;99869.44;5442996;26;20003;-70
2024/04/26 03:08:52;;;;;;;5.93;2.30;;;;;;;6.52;91.42;99869.13;5448536;26;19999;-71
2024/04/26 03:11:21;;;;;;;8.73;2.90;;;;;;;6.49;91.97;99862.50;5412226;26;20003;-70
2024/04/26 03:13:47;;;;;;;6.03;2.58;;;;;;;6.48;92.28;99866.03;5442701;26;20011;-70
2024/04/26 03:16:13;;;;;;;9.02;2.55;;;;;;;6.50;92.53;99869.28;5438576;26;20003;-71
2024/04/26 03:18:39;;;;;;;9.10;2.80;;;;;;;6.52;93.29;99871.69;5442368;26;20015;-70
2024/04/26 03:21:05;;;;;;;9.75;2.78;;;;;;;6.51;94.61;99864.91;5411883;26;20008;-70
2024/04/26 03:23:31;;;;;;;8.90;2.15;;;;;;;6.50;94.96;99860.72;5411201;26;20022;-70
2024/04/26 03:25:57;;;;;;;8.27;2.97;;;;;;;6.51;95.50;99863.13;5404030;26;20012;-70
2024/04/26 03:28:23;;;;;;;4.68;2.53;;;;;;;6.49;95.54;99865.06;5443291;26;20003;-71
2024/04/26 03:30:48;;;;;;;6.93;2.88;;;;;;;6.50;94.09;99861.53;5445427;26;20350;-71
2024/04/26 03:33:14;;;;;;;9.68;2.95;;;;;;;6.48;92.79;99858.31;5444503;26;20011;-71
2024/04/26 03:35:40;;;;;;;11.60;2.90;;;;;;;6.49;92.22;99862.50;5412943;26;20025;-70
2024/04/26 03:38:07;;;;;;;6.47;2.40;;;;;;;6.43;92.75;99863.91;5415971;26;20003;-71
2024/04/26 03:40:33;;;;;;;9.02;2.90;;;;;;;6.42;93.17;99859.72;5442350;26;20007;-71
2024/04/26 03:43:01;;;;;;;9.80;2.58;;;;;;;6.41;93.60;99863.25;5405811;26;20007;-70
2024/04/26 03:45:27;;;;;;;10.73;2.97;;;;;;;6.42;94.01;99870.03;5411364;26;20058;-70
2024/04/26 03:47:53;;;;;;;6.53;2.33;;;;;;;6.43;94.14;99865.69;5445434;26;20019;-71
2024/04/26 03:50:20;;;;;;;11.57;2.53;;;;;;;6.42;94.41;99862.31;5413348;26;20007;-71
2024/04/26 03:52:46;;;;;;;7.32;2.88;;;;;;;6.43;94.47;99869.06;5411555;26;20022;-71
2024/04/26 03:55:12;;;;;;;8.93;2.17;;;;;;;6.43;94.46;99863.09;5436122;26;20015;-71
2024/04/26 03:57:38;;;;;;;9.82;2.85;;;;;;;6.43;94.44;99863.91;5412053;26;20357;-70
2024/04/26 04:00:04;;;;;;;8.43;3.38;;;;;;;6.42;94.45;99867.44;5438883;26;20010;-70
2024/04/26 04:02:31;;;;;;;6.55;2.50;;;;;;;6.44;94.40;99869.84;5438871;26;20090;-70
2024/04/26 04:04:57;;;;;;;6.90;3.25;;;;;;;6.46;94.64;99874.84;5445772;26;20007;-70
2024/04/26 04:07:23;;;;;;;11.48;2.90;;;;;;;6.52;94.64;99863.97;5442966;26;20007;-71
2024/04/26 04:09:49;;;;;;;9.45;3.28;;;;;;;6.48;93.69;99865.22;5439558;26;20058;-71
2024/04/26 04:12:15;;;;;;;9.32;2.78;;;;;;;6.42;93.69;99864.88;5431993;26;20014;-71
2024/04/26 04:14:43;;;;;;;7.57;2.80;;;;;;;6.42;94.05;99861.47;5442881;26;20441;-70
2024/04/26 04:17:09;;;;;;;12.15;3.50;;;;;;;6.43;94.52;99865.69;5439815;26;20014;-70
2024/04/26 04:19:34;;;;;;;9.48;3.65;;;;;;;6.47;94.30;99866.19;5438117;26;20010;-70
2024/04/26 04:22:00;;;;;;;14.93;3.17;;;;;;;6.42;94.95;99862.31;5431856;26;20019;-71
2024/04/26 04:24:26;;;;;;;11.02;3.25;;;;;;;6.43;95.02;99863.91;5443009;26;20002;-70
2024/04/26 04:26:52;;;;;;;7.80;3.00;;;;;;;6.46;95.06;99864.56;5435080;26;20612;-70
2024/04/26 04:29:18;;;;;;;6.93;2.63;;;;;;;6.57;92.71;99862.56;5433407;26;20457;-71
2024/04/26 04:31:44;;;;;;;16.75;3.05;;;;;;;6.53;91.64;99863.78;5407543;26;20006;-71
2024/04/26 04:34:10;;;;;;;8.18;2.90;;;;;;;6.50;91.91;99858.97;5436788;26;20011;-71
2024/04/26 04:36:36;;;;;;;11.90;2.92;;;;;;;6.48;92.08;99860.06;5433761;26;20007;-70
2024/04/26 04:39:03;;;;;;;6.75;2.95;;;;;;;6.50;91.87;99863.28;5431773;26;20428;-71
2024/04/26 04:41:29;;;;;;;13.60;4.10;;;;;;;6.60;90.14;99866.59;5408351;26;20071;-71
2024/04/26 04:43:54;;;;;;;8.98;2.92;;;;;;;6.58;89.27;99864.16;5443524;26;20011;-71
2024/04/26 04:46:20;;;;;;;8.75;3.20;;;;;;;6.56;90.04;99870.44;5434426;26;20029;-71
2024/04/26 04:48:46;;;;;;;10.10;3.33;;;;;;;6.60;90.04;99869.16;5433009;26;20030;-70
2024/04/26 04:51:12;;;;;;;7.63;3.08;;;;;;;6.56;90.55;99867.84;5437536;26;20007;-71
2024/04/26 04:53:38;;;;;;;10.50;3.17;;;;;;;6.69;89.39;99872.59;5434314;26;20004;-70
2024/04/26 04:56:05;;;;;;;7.95;4.13;;;;;;;6.68;88.48;99868.38;5443134;26;19999;-71
2024/04/26 04:58:31;;;;;;;13.52;3.85;;;;;;;6.60;89.88;99869.97;5390464;26;19999;-71
2024/04/26 05:00:56;;;;;;;13.02;3.15;;;;;;;6.59;90.35;99863.22;5406177;26;20042;-71
2024/04/26 05:03:22;;;;;;;13.43;3.38;;;;;;;6.62;90.80;99862.88;5435995;26;20004;-70
2024/04/26 05:05:49;;;;;;;9.55;3.17;;;;;;;6.63;90.99;99874.00;5401985;26;20042;-70
2024/04/26 05:08:15;;;;;;;6.93;3.08;;;;;;;6.61;91.79;99874.16;5410585;26;20017;-70
2024/04/26 05:10:41;;;;;;;11.25;3.08;;;;;;;6.62;93.32;99878.34;5406863;26;19998;-70
2024/04/26 05:13:07;;;;;;;7.20;2.75;;;;;;;6.62;94.44;99885.25;5404808;26;20011;-71
2024/04/26 05:15:33;;;;;;;12.43;4.05;;;;;;;6.62;94.95;99888.66;5436216;26;20008;-70
2024/04/26 05:17:59;;;;;;;7.15;3.30;;;;;;;6.63;94.96;99884.31;5406219;26;21184;-70
2024/04/26 05:20:26;;;;;;;7.95;2.92;;;;;;;6.66;95.58;99891.72;5434251;26;19999;-70
2024/04/26 05:22:52;;;;;;;10.88;3.42;;;;;;;6.68;96.18;99884.66;5436984;26;20007;-70
2024/04/26 05:25:18;;;;;;;11.05;3.08;;;;;;;6.75;94.80;99884.84;5435955;26;20465;-71
2024/04/26 05:27:46;;;;;;;14.50;3.40;;;;;;;6.82;95.00;99893.59;5436286;26;20012;-70
2024/04/26 05:30:14;;;;;;;14.20;3.17;;;;;;;6.81;95.13;99890.19;5404280;26;20007;-70
2024/04/26 05:32:41;;;;;;;15.75;3.42;;;;;;;6.82;96.13;99893.59;5408788;26;20205;-72
2024/04/26 05:35:07;;;;;;;9.07;3.58;;;;;;;6.82;96.23;99894.41;5407642;26;20007;-70
2024/04/26 05:37:33;;;;;;;13.38;6.50;;;;;;;6.85;97.61;99901.00;5431500;26;20076;-71
2024/04/26 05:39:59;;;;;;;22.52;10.23;;;;;;;6.89;98.10;99917.78;5432639;26;20004;-70
2024/04/26 05:42:25;;;;;;;23.55;11.65;;;;;;;6.90;97.86;99909.09;5436488;26;20019;-70
2024/04/26 05:44:51;;;;;;;27.10;10.35;;;;;;;6.93;98.93;99913.94;5407960;26;20025;-70
2024/04/26 05:47:17;;;;;;;17.17;8.10;;;;;;;6.96;99.87;99916.19;5440147;26;20631;-70
2024/04/26 05:49:42;;;;;;;15.05;6.30;;;;;;;7.06;100.00;99910.13;5438919;26;20048;-70
2024/04/26 05:52:08;;;;;;;9.75;4.47;;;;;;;7.03;100.00;99903.53;5404109;26;20729;-70
2024/04/26 05:54:34;;;;;;;14.60;4.28;;;;;;;7.01;100.00;99916.56;5404975;26;20003;-71
2024/04/26 05:57:00;;;;;;;15.77;5.55;;;;;;;7.08;100.00;99906.41;5433914;26;24282;-71
2024/04/26 05:59:26;;;;;;;9.63;4.68;;;;;;;7.08;99.96;99916.72;5398002;26;20023;-71
2024/04/26 06:01:52;;;;;;;17.95;5.72;;;;;;;7.18;98.14;99920.00;5429981;26;20015;-71
2024/04/26 06:04:18;;;;;;;16.98;7.40;;;;;;;7.18;98.20;99911.47;5435764;26;20051;-71
2024/04/26 06:06:46;;;;;;;15.30;5.07;;;;;;;7.21;98.14;99917.13;5440769;26;20083;-70
2024/04/26 06:09:13;;;;;;;19.17;6.85;;;;;;;7.27;97.93;99923.44;5433194;26;20021;-71
2024/04/26 06:11:39;;;;;;;17.27;5.50;;;;;;;7.35;97.69;99922.66;5427579;26;20015;-71
2024/04/26 06:14:05;;;;;;;24.48;8.30;;;;;;;7.35;96.77;99920.09;5434558;26;20020;-71
2024/04/26 06:16:30;;;;;;;19.73;5.90;;;;;;;7.40;96.44;99921.22;5437049;26;20057;-71
2024/04/26 06:18:58;;;;;;;17.27;6.80;;;;;;;7.43;95.60;99925.25;5437621;26;20007;-71
2024/04/26 06:21:24;;;;;;;37.25;13.52;;;;;;;7.49;96.07;99928.97;5405921;26;20011;-71
2024/04/26 06:23:49;;;;;;;18.75;5.53;;;;;;;7.64;93.87;99934.34;5436241;26;20698;-71
2024/04/26 06:26:16;;;;;;;13.80;5.55;;;;;;;7.65;94.39;99934.19;5437921;26;20465;-71
2024/04/26 06:28:44;;;;;;;12.73;4.85;;;;;;;7.72;93.80;99929.19;5431789;26;20043;-71
2024/04/26 06:31:10;;;;;;;15.15;5.55;;;;;;;7.74;93.45;99938.41;5397732;26;20003;-71
2024/04/26 06:33:36;;;;;;;15.35;5.30;;;;;;;7.72;92.87;99942.94;5401921;26;20525;-70
2024/04/26 06:36:03;;;;;;;13.93;5.13;;;;;;;7.78;93.70;99949.22;5410403;26;20006;-70
2024/04/26 06:38:29;;;;;;;14.82;5.38;;;;;;;7.83;93.57;99951.31;5439043;26;20068;-70
2024/04/26 06:40:55;;;;;;;14.10;5.10;;;;;;;7.93;93.02;99950.22;5437626;26;20349;-70
2024/04/26 06:43:21;;;;;;;12.40;4.40;;;;;;;7.94;92.80;99951.00;5440999;26;20014;-71
2024/04/26 06:45:47;;;;;;;10.73;4.63;;;;;;;8.01;93.46;99961.53;5414457;26;20044;-70
2024/04/26 06:48:13;;;;;;;11.10;4.82;;;;;;;8.07;90.69;99961.69;5447278;26;20007;-72
2024/04/26 06:50:39;;;;;;;13.27;4.55;;;;;;;8.14;89.04;99960.06;5410089;26;21394;-71
2024/04/26 06:53:05;;;;;;;14.93;4.63;;;;;;;8.23;89.00;99965.22;5445392;26;20007;-71
2024/04/26 06:55:31;;;;;;;11.13;4.43;;;;;;;8.41;86.60;99975.44;5408962;26;20004;-70
2024/04/26 06:57:57;;;;;;;13.13;4.50;;;;;;;8.45;87.80;99974.16;5438285;26;20011;-71
2024/04/26 07:00:23;;;;;;;13.75;4.90;;;;;;;8.39;86.52;99978.16;5444261;26;20003;-70
2024/04/26 07:02:49;;;;;;;16.20;4.60;;;;;;;8.39;86.52;99978.97;5415986;26;20010;-71
2024/04/26 07:05:15;;;;;;;13.55;4.82;;;;;;;8.47;87.15;99977.38;5444247;26;20009;-71
2024/04/26 07:07:46;;;;;;;16.50;5.30;;;;;;;8.64;86.58;99988.53;5440401;26;20018;-71
2024/04/26 07:10:12;;;;;;;10.90;4.75;;;;;;;8.58;84.36;99984.81;5435701;26;20058;-70
2024/04/26 07:12:38;;;;;;;10.25;3.95;;;;;;;8.66;84.90;99981.41;5414665;26;20029;-70
2024/04/26 07:15:05;;;;;;;16.63;4.63;;;;;;;8.57;85.99;99984.00;5441530;26;21006;-70
2024/04/26 07:17:31;;;;;;;10.85;4.50;;;;;;;8.68;83.68;99982.06;5448235;26;20361;-71
2024/04/26 07:19:57;;;;;;;13.13;4.20;;;;;;;8.66;83.51;99984.78;5440345;26;20529;-70
2024/04/26 07:22:23;;;;;;;12.15;4.10;;;;;;;8.69;84.37;99992.22;5443250;26;20014;-70
2024/04/26 07:24:50;;;;;;;12.82;4.30;;;;;;;8.80;85.56;99993.69;5438158;26;20778;-70
2024/04/26 07:27:17;;;;;;;9.45;4.25;;;;;;;8.81;86.14;99994.47;5436079;26;20012;-70
2024/04/26 07:29:43;;;;;;;9.40;4.13;;;;;;;8.81;86.57;100000.44;5434446;26;20466;-71
2024/04/26 07:32:09;;;;;;;12.05;4.90;;;;;;;8.88;83.88;100006.59;5438782;26;20015;-70
2024/04/26 07:34:35;;;;;;;14.77;4.43;;;;;;;9.05;82.71;100003.97;5442769;26;20484;-70
2024/04/26 07:37:01;;;;;;;13.10;5.07;;;;;;;9.03;85.00;99998.97;5437051;26;20018;-70
2024/04/26 07:39:27;;;;;;;9.15;3.90;;;;;;;9.00;85.49;100001.06;5409115;26;20021;-71
2024/04/26 07:41:53;;;;;;;8.38;3.78;;;;;;;9.10;86.38;100001.72;5408861;26;20017;-71
2024/04/26 07:44:19;;;;;;;16.45;4.75;;;;;;;9.03;86.63;100006.72;5448779;26;19999;-71
2024/04/26 07:46:45;;;;;;;13.82;5.38;;;;;;;8.91;86.32;100010.59;5441281;26;20598;-71
2024/04/26 07:49:11;;;;;;;15.68;4.70;;;;;;;8.97;86.17;100007.38;5409331;26;20421;-71
2024/04/26 07:51:39;;;;;;;14.25;4.88;;;;;;;8.91;86.56;100016.59;5410605;26;20022;-71
2024/04/26 07:54:05;;;;;;;17.00;5.03;;;;;;;8.88;89.26;100016.13;5439259;26;20023;-70
2024/04/26 07:56:33;;;;;;;16.13;4.85;;;;;;;8.91;89.59;100008.84;5409401;26;20075;-71
2024/04/26 07:58:59;;;;;;;11.30;4.88;;;;;;;8.80;91.30;100018.69;5446378;26;20018;-71
2024/04/26 08:01:25;;;;;;;12.95;4.75;;;;;;;8.86;93.75;100024.03;5436374;26;20013;-71
2024/04/26 08:03:52;;;;;;;16.48;5.45;;;;;;;8.87;95.69;100024.84;5441341;26;20011;-71
2024/04/26 08:06:19;;;;;;;14.63;5.00;;;;;;;8.84;92.31;100023.41;5441310;26;20484;-71
2024/04/26 08:08:45;;;;;;;13.45;5.03;;;;;;;8.73;93.57;100027.13;5444061;26;20466;-71
2024/04/26 08:11:11;;;;;;;12.07;5.18;;;;;;;8.61;93.46;100025.00;5443546;26;20007;-70
2024/04/26 08:13:37;;;;;;;17.77;6.03;;;;;;;8.62;93.64;100027.44;5441560;26;20006;-71
2024/04/26 08:16:03;;;;;;;14.55;5.30;;;;;;;8.62;94.05;100036.97;5413341;26;20006;-71
2024/04/26 08:18:29;;;;;;;11.57;5.40;;;;;;;8.59;95.66;100035.53;5446128;26;20472;-71
2024/04/26 08:20:55;;;;;;;12.52;5.10;;;;;;;8.65;94.84;100031.50;5431890;26;20007;-71
2024/04/26 08:23:21;;;;;;;12.18;5.10;;;;;;;8.60;95.65;100031.16;5410902;26;20014;-71
2024/04/26 08:25:47;;;;;;;13.45;5.30;;;;;;;8.62;95.27;100030.03;5434648;26;20657;-72
2024/04/26 08:28:14;;;;;;;13.07;5.30;;;;;;;8.73;95.40;100031.47;5408361;26;20007;-71
2024/04/26 08:30:40;;;;;;;10.77;4.88;;;;;;;8.69;93.49;100032.78;5440526;26;20018;-70
2024/04/26 08:33:06;;;;;;;17.10;5.70;;;;;;;8.74;95.11;100030.53;5434158;26;20006;-71
2024/04/26 08:35:33;;;;;;;11.93;4.88;;;;;;;8.70;95.71;100040.38;5444782;26;20003;-71
2024/04/26 08:37:59;;;;;;;13.98;5.50;;;;;;;8.86;94.48;100036.97;5411990;26;20354;-71
2024/04/26 08:40:25;;;;;;;14.48;5.40;;;;;;;8.91;92.48;100041.63;5410785;26;20030;-71
2024/04/26 08:42:51;;;;;;;16.45;5.93;;;;;;;8.88;93.62;100047.16;5439488;26;20084;-77
2024/04/26 08:45:19;;;;;;;16.48;5.85;;;;;;;8.81;91.30;100043.59;5440995;26;20011;-71
2024/04/26 08:47:48;;;;;;;9.10;4.50;;;;;;;8.77;91.77;100046.50;5413165;26;20007;-71
2024/04/26 08:50:14;;;;;;;18.77;5.28;;;;;;;8.73;92.44;100045.22;5405236;26;20006;-71
2024/04/26 08:52:40;;;;;;;18.55;5.75;;;;;;;8.70;93.11;100050.72;5399710;26;20015;-70
2024/04/26 08:55:06;;;;;;;10.23;5.25;;;;;;;8.62;93.75;100053.28;5404527;26;20093;-71
2024/04/26 08:57:33;;;;;;;14.82;5.07;;;;;;;8.66;94.00;100049.41;5440322;26;20079;-70
2024/04/26 09:00:05;;;;;;;8.27;4.65;;;;;;;8.77;93.85;100054.25;5410019;26;20017;-71
2024/04/26 09:02:36;;;;;;;17.42;5.75;;;;;;;8.90;93.60;100050.38;5439738;26;20011;-71
2024/04/26 09:05:03;;;;;;;12.73;4.53;;;;;;;8.98;91.86;100055.53;5411007;26;20015;-71
2024/04/26 09:07:29;;;;;;;10.57;5.22;;;;;;;8.93;90.48;100057.81;5431420;26;20063;-72
2024/04/26 09:09:55;;;;;;;14.05;5.38;;;;;;;8.96;91.55;100054.88;5398921;26;20002;-73
2024/04/26 09:12:22;;;;;;;11.63;5.03;;;;;;;8.94;89.30;100064.59;5441576;26;20357;-71
2024/04/26 09:14:48;;;;;;;11.05;4.93;;;;;;;8.91;89.64;100067.50;5408682;26;20048;-70
2024/04/26 09:17:14;;;;;;;15.30;5.18;;;;;;;8.89;90.93;100074.59;5409865;26;20315;-70
2024/04/26 09:19:40;;;;;;;15.23;5.97;;;;;;;8.83;90.07;100068.31;5430571;26;20011;-70
2024/04/26 09:22:06;;;;;;;11.85;4.97;;;;;;;8.83;89.29;100072.69;5412152;26;20477;-70
2024/04/26 09:24:33;;;;;;;12.70;4.95;;;;;;;8.79;90.23;100071.38;5405102;26;20007;-70
2024/04/26 09:26:59;;;;;;;17.60;5.63;;;;;;;8.84;89.14;100082.06;5409219;26;20003;-72
2024/04/26 09:29:26;;;;;;;12.00;4.85;;;;;;;8.81;89.17;100082.38;5440271;26;20570;-71
2024/04/26 09:31:59;;;;;;;12.75;4.70;;;;;;;8.84;89.48;100082.06;5383033;26;20488;-71
2024/04/26 09:34:26;;;;;;;13.93;5.03;;;;;;;8.87;90.27;100079.97;5429174;26;20000;-71
2024/04/26 09:36:53;;;;;;;16.60;4.72;;;;;;;8.91;90.09;100086.41;5438972;26;20076;-71
2024/04/26 09:39:19;;;;;;;15.32;4.93;;;;;;;8.91;89.98;100088.19;5432717;26;20081;-71
2024/04/26 09:41:48;;;;;;;12.07;4.65;;;;;;;9.02;89.51;100081.88;5439338;26;20083;-72
2024/04/26 09:44:15;;;;;;;11.48;5.00;;;;;;;9.08;89.30;100084.63;5408267;26;20007;-71
2024/04/26 09:46:41;;;;;;;9.77;4.63;;;;;;;9.22;89.20;100088.31;5374288;26;20383;-71
2024/04/26 09:49:07;;;;;;;11.68;5.72;;;;;;;9.15;90.27;100093.34;5435733;26;19999;-71
2024/04/26 09:51:39;;;;;;;12.23;5.15;;;;;;;9.19;91.13;100095.59;5403598;26;20011;-71
2024/04/26 09:54:09;;;;;;;15.77;5.10;;;;;;;9.21;91.07;100098.81;5437764;26;20025;-70
2024/04/26 09:56:38;;;;;;;12.93;4.97;;;;;;;9.29;91.43;100096.25;5398906;26;20007;-71
2024/04/26 09:59:05;;;;;;;10.55;5.32;;;;;;;9.43;89.43;100098.13;5432156;26;20002;-71
2024/04/26 10:01:33;;;;;;;14.60;5.13;;;;;;;9.45;90.28;100097.97;5439445;26;20068;-71
2024/04/26 10:04:02;;;;;;;12.82;5.45;;;;;;;9.49;91.14;100112.19;5436771;26;20002;-70
2024/04/26 10:06:41;;;;;;;12.65;5.38;;;;;;;9.51;92.35;100105.06;5437902;26;20019;-70
2024/04/26 10:09:09;;;;;;;15.18;5.88;;;;;;;9.49;92.92;100115.63;5434751;26;20018;-71
2024/04/26 10:11:46;;;;;;;13.00;5.43;;;;;;;9.58;92.52;100113.78;5435083;26;20013;-70
2024/04/26 10:14:12;;;;;;;15.85;6.28;;;;;;;9.70;92.07;100116.81;5401806;26;20026;-70
2024/04/26 10:16:38;;;;;;;12.63;5.40;;;;;;;9.77;92.28;100112.59;5436186;26;19999;-70
2024/04/26 10:19:17;;;;;;;13.18;5.63;;;;;;;9.92;91.75;100113.50;5416527;26;20003;-71
2024/04/26 10:21:44;;;;;;;11.45;5.18;;;;;;;9.99;90.55;100123.22;5430866;26;20022;-70
2024/04/26 10:24:10;;;;;;;16.98;5.95;;;;;;;10.14;92.04;100124.13;5438500;26;20346;-71
2024/04/26 10:26:36;;;;;;;11.13;5.28;;;;;;;10.19;89.57;100126.19;5429680;26;20023;-71
2024/04/26 10:29:11;;;;;;;10.73;5.88;;;;;;;10.13;87.33;100125.91;5436050;26;20018;-71
2024/04/26 10:31:39;;;;;;;11.32;5.57;;;;;;;10.17;89.56;100123.78;5433200;26;20084;-71
2024/04/26 10:34:17;;;;;;;10.43;5.13;;;;;;;10.17;89.02;100130.72;5404213;26;20026;-71
2024/04/26 10:36:46;;;;;;;14.50;5.88;;;;;;;9.99;86.58;100136.16;5434766;26;20007;-73
2024/04/26 10:39:27;;;;;;;15.25;5.68;;;;;;;10.02;89.63;100133.22;5404283;26;20079;-72
2024/04/26 10:41:53;;;;;;;17.05;6.03;;;;;;;9.97;88.01;100130.34;5405756;26;20079;-73
2024/04/26 10:44:20;;;;;;;11.32;6.28;;;;;;;9.90;91.25;100133.59;5411697;26;20042;-72
2024/04/26 10:46:45;;;;;;;14.88;6.35;;;;;;;9.89;91.53;100134.59;5437723;26;20015;-72
2024/04/26 10:49:12;;;;;;;13.65;6.63;;;;;;;10.04;93.32;100134.69;5404540;26;20466;-71
2024/04/26 10:51:38;;;;;;;16.77;6.40;;;;;;;10.13;92.11;100136.28;5373751;26;20003;-71
2024/04/26 10:54:05;;;;;;;12.07;6.60;;;;;;;10.20;92.29;100128.63;5397854;26;20083;-71
2024/04/26 10:56:40;;;;;;;17.90;7.38;;;;;;;10.21;92.21;100135.41;5400807;26;20014;-73
2024/04/26 10:59:20;;;;;;;13.85;7.13;;;;;;;10.23;90.11;100133.47;5433159;26;20373;-71
2024/04/26 11:01:46;;;;;;;12.50;6.43;;;;;;;10.27;86.20;100129.56;5437085;26;20011;-71
2024/04/26 11:04:17;;;;;;;14.80;6.30;;;;;;;10.43;83.71;100131.25;5410569;26;20003;-71
2024/04/26 11:06:43;;;;;;;14.45;6.35;;;;;;;10.42;84.70;100128.88;5427991;26;20012;-71
2024/04/26 11:09:14;;;;;;;13.23;6.63;;;;;;;10.48;83.73;100135.94;5403594;26;20011;-71
2024/04/26 11:11:56;;;;;;;16.52;8.13;;;;;;;10.55;81.93;100129.09;5407863;26;20079;-71
2024/04/26 11:14:29;;;;;;;14.23;5.90;;;;;;;10.66;82.63;100131.31;5430849;26;20010;-72
2024/04/26 11:16:58;;;;;;;14.93;6.75;;;;;;;10.69;81.83;100130.13;5402022;26;20018;-71
2024/04/26 11:19:29;;;;;;;12.68;6.00;;;;;;;10.90;81.73;100132.09;5408402;26;20006;-72
2024/04/26 11:21:56;;;;;;;12.13;6.00;;;;;;;11.01;79.49;100139.47;5446458;26;20010;-72
2024/04/26 11:24:24;;;;;;;12.80;6.18;;;;;;;11.16;78.83;100133.50;5434749;26;20010;-72
2024/04/26 11:26:50;;;;;;;13.48;6.78;;;;;;;11.14;78.49;100138.06;5439720;26;20035;-72
2024/04/26 11:29:18;;;;;;;14.52;6.28;;;;;;;11.16;80.72;100142.09;5411505;26;20015;-72
2024/04/26 11:31:47;;;;;;;15.50;7.30;;;;;;;11.20;77.79;100145.16;5438349;26;20017;-72